Weslaco, TX

12:10 PM CST on December 03, 2016 (GMT -0600)
Weslaco | | Change Station

Elev 69 ft 26.18 °N, 97.97 °W | Updated 15 minutes ago

Mostly Cloudy
Mostly Cloudy
82 °F
Feels Like 85 °F
N
21
Wind Variable Wind from South
Gusts 28 mph

Today
High -- | Low -- °F
--% Chance of Precip.
Yesterday
High -- | Low -- °F
Precip. -- in
Pressure 29.80 in
Visibility 7.0 miles
Clouds Mostly Cloudy 3100 ft
Mostly Cloudy 3600 ft
Heat Index 85 °F
Dew Point 70 °F
Humidity 67%
Rainfall 0.07 in
Snow Depth Not available.
7:04 AM 5:39 PM
Waxing Crescent, 16% visible
METAR KT65 031755Z AUTO 19018G24KT 7SM BKN031 BKN036 28/21 A2980 RMK AO2 T02750210 10284 20230
Pressure 29.80 in
Visibility 7.0 miles
Clouds Mostly Cloudy 3100 ft
Mostly Cloudy 3600 ft
Heat Index 85 °F
Dew Point 70 °F
Humidity 67%
Rainfall 0.07 in
Snow Depth Not available.
7:04 AM 5:39 PM
Waxing Crescent, 16% visible
METAR KT65 031755Z AUTO 19018G24KT 7SM BKN031 BKN036 28/21 A2980 RMK AO2 T02750210 10284 20230

10-Day Weather Forecast

Almanac

Astronomy

Dec. 03, 2016 Rise Set
Actual Time
Civil Twilight
Nautical Twilight
Astronomical Twilight
Moon
Length of Visible Light
Length of Day
Tomorrow will be .
, % of the Moon is Illuminated

Today's Extremes

State Highs State Lows

Community

WunderPhotos

Upload Photos

1,955,455 photos uploaded!

WunderBlog® & News

Nearby

Air Quality

  Air Quality AQ Index Pollutant
Not available.

Snow Depth

Station Depth Elevation

Earthquake Activity

City Distance Mag. Time & Date
Minimum magnitude displayed is 2.5.

Coastal Water Temperatures

Place Temperature

Stations

Nearby Weather Stations

Station Location Temp. Windchill Dew Point Humidity Wind Precip. Elev Updated Type
                   

Watches & Warnings

There are currently no watches in effect.